sensor_id;sensor_type;location;lat;lon;timestamp;P1;durP1;ratioP1;P2;durP2;ratioP2
59408;SDS011;45213;32.654;-115.458;2023-04-03T00:00:37;7.47;;;1.20;;
59408;SDS011;45213;32.654;-115.458;2023-04-03T00:03:03;2.67;;;1.23;;
59408;SDS011;45213;32.654;-115.458;2023-04-03T00:05:30;5.38;;;0.90;;
59408;SDS011;45213;32.654;-115.458;2023-04-03T00:07:56;3.40;;;0.77;;
59408;SDS011;45213;32.654;-115.458;2023-04-03T00:10:23;3.15;;;1.15;;
59408;SDS011;45213;32.654;-115.458;2023-04-03T00:12:50;4.95;;;1.60;;
59408;SDS011;45213;32.654;-115.458;2023-04-03T00:15:17;6.78;;;1.27;;
59408;SDS011;45213;32.654;-115.458;2023-04-03T00:17:43;8.30;;;1.23;;
59408;SDS011;45213;32.654;-115.458;2023-04-03T00:20:11;5.95;;;1.70;;
59408;SDS011;45213;32.654;-115.458;2023-04-03T00:22:38;8.48;;;1.58;;
59408;SDS011;45213;32.654;-115.458;2023-04-03T00:25:04;3.20;;;1.70;;
59408;SDS011;45213;32.654;-115.458;2023-04-03T00:27:32;13.40;;;2.65;;
59408;SDS011;45213;32.654;-115.458;2023-04-03T00:29:58;4.97;;;1.75;;
59408;SDS011;45213;32.654;-115.458;2023-04-03T00:32:25;9.43;;;1.65;;
59408;SDS011;45213;32.654;-115.458;2023-04-03T00:34:51;4.07;;;1.13;;
59408;SDS011;45213;32.654;-115.458;2023-04-03T00:37:18;6.32;;;1.27;;
59408;SDS011;45213;32.654;-115.458;2023-04-03T00:39:45;9.70;;;1.75;;
59408;SDS011;45213;32.654;-115.458;2023-04-03T00:42:11;3.92;;;1.42;;
59408;SDS011;45213;32.654;-115.458;2023-04-03T00:47:05;10.27;;;2.20;;
59408;SDS011;45213;32.654;-115.458;2023-04-03T00:49:35;6.38;;;1.13;;
59408;SDS011;45213;32.654;-115.458;2023-04-03T00:52:03;8.05;;;1.63;;
59408;SDS011;45213;32.654;-115.458;2023-04-03T00:54:33;9.07;;;2.28;;
59408;SDS011;45213;32.654;-115.458;2023-04-03T00:57:02;5.95;;;1.60;;
59408;SDS011;45213;32.654;-115.458;2023-04-03T00:59:32;9.20;;;1.80;;
59408;SDS011;45213;32.654;-115.458;2023-04-03T01:02:06;7.07;;;2.00;;
59408;SDS011;45213;32.654;-115.458;2023-04-03T01:07:04;7.95;;;3.33;;
59408;SDS011;45213;32.654;-115.458;2023-04-03T01:09:35;8.75;;;4.03;;
59408;SDS011;45213;32.654;-115.458;2023-04-03T01:12:19;7.10;;;2.60;;
59408;SDS011;45213;32.654;-115.458;2023-04-03T01:14:53;9.80;;;2.40;;
59408;SDS011;45213;32.654;-115.458;2023-04-03T01:28:10;4.50;;;1.30;;
59408;SDS011;45213;32.654;-115.458;2023-04-03T01:30:50;4.40;;;1.50;;
59408;SDS011;45213;32.654;-115.458;2023-04-03T01:33:34;4.95;;;1.50;;
59408;SDS011;45213;32.654;-115.458;2023-04-03T01:36:02;2.92;;;1.33;;
59408;SDS011;45213;32.654;-115.458;2023-04-03T01:38:29;3.03;;;1.50;;
59408;SDS011;45213;32.654;-115.458;2023-04-03T01:40:56;5.72;;;1.60;;
59408;SDS011;45213;32.654;-115.458;2023-04-03T01:43:23;4.38;;;1.30;;
59408;SDS011;45213;32.654;-115.458;2023-04-03T01:45:50;3.28;;;0.93;;
59408;SDS011;45213;32.654;-115.458;2023-04-03T01:48:18;2.97;;;1.30;;
59408;SDS011;45213;32.654;-115.458;2023-04-03T01:50:45;7.78;;;1.10;;
59408;SDS011;45213;32.654;-115.458;2023-04-03T01:53:13;3.47;;;1.75;;
59408;SDS011;45213;32.654;-115.458;2023-04-03T01:55:40;3.90;;;2.53;;
59408;SDS011;45213;32.654;-115.458;2023-04-03T01:58:07;2.88;;;1.40;;
59408;SDS011;45213;32.654;-115.458;2023-04-03T02:00:33;7.63;;;1.52;;
59408;SDS011;45213;32.654;-115.458;2023-04-03T02:03:00;4.82;;;1.50;;
59408;SDS011;45213;32.654;-115.458;2023-04-03T02:05:27;3.50;;;1.10;;
59408;SDS011;45213;32.654;-115.458;2023-04-03T02:07:53;4.05;;;1.30;;
59408;SDS011;45213;32.654;-115.458;2023-04-03T02:10:20;4.40;;;1.35;;
59408;SDS011;45213;32.654;-115.458;2023-04-03T02:12:47;4.82;;;1.40;;
59408;SDS011;45213;32.654;-115.458;2023-04-03T02:15:13;6.13;;;2.03;;
59408;SDS011;45213;32.654;-115.458;2023-04-03T02:17:40;9.75;;;2.30;;
59408;SDS011;45213;32.654;-115.458;2023-04-03T02:20:07;5.15;;;1.48;;
59408;SDS011;45213;32.654;-115.458;2023-04-03T02:22:34;5.75;;;2.35;;
59408;SDS011;45213;32.654;-115.458;2023-04-03T02:25:01;3.78;;;1.20;;
59408;SDS011;45213;32.654;-115.458;2023-04-03T02:27:28;10.68;;;1.35;;
59408;SDS011;45213;32.654;-115.458;2023-04-03T02:29:55;6.13;;;1.75;;
59408;SDS011;45213;32.654;-115.458;2023-04-03T02:32:21;3.33;;;0.90;;
59408;SDS011;45213;32.654;-115.458;2023-04-03T02:34:48;2.47;;;0.95;;
59408;SDS011;45213;32.654;-115.458;2023-04-03T02:37:15;6.03;;;1.60;;
59408;SDS011;45213;32.654;-115.458;2023-04-03T02:39:44;13.63;;;2.08;;
59408;SDS011;45213;32.654;-115.458;2023-04-03T02:42:11;1.60;;;1.00;;
59408;SDS011;45213;32.654;-115.458;2023-04-03T02:44:37;3.28;;;1.30;;
59408;SDS011;45213;32.654;-115.458;2023-04-03T02:47:04;5.18;;;1.20;;
59408;SDS011;45213;32.654;-115.458;2023-04-03T02:49:32;2.17;;;0.80;;
59408;SDS011;45213;32.654;-115.458;2023-04-03T02:51:59;2.72;;;1.05;;
59408;SDS011;45213;32.654;-115.458;2023-04-03T02:54:25;4.05;;;1.05;;
59408;SDS011;45213;32.654;-115.458;2023-04-03T02:56:57;8.40;;;1.65;;
59408;SDS011;45213;32.654;-115.458;2023-04-03T02:59:23;3.13;;;0.93;;
59408;SDS011;45213;32.654;-115.458;2023-04-03T03:01:50;2.45;;;1.08;;
59408;SDS011;45213;32.654;-115.458;2023-04-03T03:04:17;4.97;;;1.13;;
59408;SDS011;45213;32.654;-115.458;2023-04-03T03:06:43;6.30;;;1.60;;
59408;SDS011;45213;32.654;-115.458;2023-04-03T03:09:10;3.25;;;1.38;;
59408;SDS011;45213;32.654;-115.458;2023-04-03T03:11:38;4.50;;;1.00;;
59408;SDS011;45213;32.654;-115.458;2023-04-03T03:14:05;4.65;;;1.10;;
59408;SDS011;45213;32.654;-115.458;2023-04-03T03:16:32;32.38;;;3.40;;
59408;SDS011;45213;32.654;-115.458;2023-04-03T03:18:59;2.17;;;0.90;;
59408;SDS011;45213;32.654;-115.458;2023-04-03T03:21:26;3.58;;;1.10;;
59408;SDS011;45213;32.654;-115.458;2023-04-03T03:23:53;4.28;;;1.15;;
59408;SDS011;45213;32.654;-115.458;2023-04-03T03:26:19;2.05;;;1.02;;
59408;SDS011;45213;32.654;-115.458;2023-04-03T03:28:46;2.83;;;1.15;;
59408;SDS011;45213;32.654;-115.458;2023-04-03T03:31:13;2.88;;;1.00;;
59408;SDS011;45213;32.654;-115.458;2023-04-03T03:33:40;2.15;;;1.02;;
59408;SDS011;45213;32.654;-115.458;2023-04-03T03:36:07;2.90;;;0.98;;
59408;SDS011;45213;32.654;-115.458;2023-04-03T03:38:35;7.00;;;1.38;;
59408;SDS011;45213;32.654;-115.458;2023-04-03T03:41:02;2.67;;;0.95;;
59408;SDS011;45213;32.654;-115.458;2023-04-03T03:43:32;3.30;;;0.90;;
59408;SDS011;45213;32.654;-115.458;2023-04-03T03:45:59;4.38;;;1.30;;
59408;SDS011;45213;32.654;-115.458;2023-04-03T03:48:27;3.28;;;1.33;;
59408;SDS011;45213;32.654;-115.458;2023-04-03T03:50:53;3.38;;;1.60;;
59408;SDS011;45213;32.654;-115.458;2023-04-03T03:53:24;4.13;;;2.40;;
59408;SDS011;45213;32.654;-115.458;2023-04-03T03:55:55;5.35;;;1.95;;
59408;SDS011;45213;32.654;-115.458;2023-04-03T03:58:24;5.55;;;1.98;;
59408;SDS011;45213;32.654;-115.458;2023-04-03T04:00:51;6.28;;;1.77;;
59408;SDS011;45213;32.654;-115.458;2023-04-03T04:03:17;6.15;;;1.50;;
59408;SDS011;45213;32.654;-115.458;2023-04-03T04:05:47;9.57;;;1.88;;
59408;SDS011;45213;32.654;-115.458;2023-04-03T04:08:14;5.25;;;1.45;;
59408;SDS011;45213;32.654;-115.458;2023-04-03T04:10:42;5.78;;;1.73;;
59408;SDS011;45213;32.654;-115.458;2023-04-03T04:13:11;4.72;;;1.58;;
59408;SDS011;45213;32.654;-115.458;2023-04-03T04:15:38;4.07;;;1.98;;
59408;SDS011;45213;32.654;-115.458;2023-04-03T04:18:06;8.43;;;2.00;;
59408;SDS011;45213;32.654;-115.458;2023-04-03T04:20:33;2.90;;;1.50;;
59408;SDS011;45213;32.654;-115.458;2023-04-03T04:23:00;5.90;;;1.40;;
59408;SDS011;45213;32.654;-115.458;2023-04-03T04:25:28;8.00;;;1.63;;
59408;SDS011;45213;32.654;-115.458;2023-04-03T04:27:55;6.18;;;1.73;;
59408;SDS011;45213;32.654;-115.458;2023-04-03T04:30:21;3.83;;;1.45;;
59408;SDS011;45213;32.654;-115.458;2023-04-03T04:32:49;6.20;;;1.70;;
59408;SDS011;45213;32.654;-115.458;2023-04-03T04:35:16;5.10;;;1.83;;
59408;SDS011;45213;32.654;-115.458;2023-04-03T04:37:45;7.93;;;1.90;;
59408;SDS011;45213;32.654;-115.458;2023-04-03T04:40:13;6.78;;;1.88;;
59408;SDS011;45213;32.654;-115.458;2023-04-03T04:42:39;11.35;;;2.40;;
59408;SDS011;45213;32.654;-115.458;2023-04-03T04:45:06;9.77;;;2.60;;
59408;SDS011;45213;32.654;-115.458;2023-04-03T04:47:33;8.63;;;2.70;;
59408;SDS011;45213;32.654;-115.458;2023-04-03T04:50:00;15.88;;;3.22;;
59408;SDS011;45213;32.654;-115.458;2023-04-03T04:52:27;8.25;;;2.10;;
59408;SDS011;45213;32.654;-115.458;2023-04-03T04:54:54;6.80;;;1.80;;
59408;SDS011;45213;32.654;-115.458;2023-04-03T04:57:20;6.07;;;1.48;;
59408;SDS011;45213;32.654;-115.458;2023-04-03T04:59:49;15.20;;;2.92;;
59408;SDS011;45213;32.654;-115.458;2023-04-03T05:02:15;8.40;;;2.58;;
59408;SDS011;45213;32.654;-115.458;2023-04-03T05:04:44;7.72;;;2.13;;
59408;SDS011;45213;32.654;-115.458;2023-04-03T05:07:17;8.48;;;2.65;;
59408;SDS011;45213;32.654;-115.458;2023-04-03T05:09:43;10.82;;;2.30;;
59408;SDS011;45213;32.654;-115.458;2023-04-03T05:12:12;5.15;;;2.40;;
59408;SDS011;45213;32.654;-115.458;2023-04-03T05:14:45;4.75;;;1.50;;
59408;SDS011;45213;32.654;-115.458;2023-04-03T05:17:12;3.13;;;1.33;;
59408;SDS011;45213;32.654;-115.458;2023-04-03T05:19:42;4.00;;;1.40;;
59408;SDS011;45213;32.654;-115.458;2023-04-03T05:22:10;4.90;;;1.60;;
59408;SDS011;45213;32.654;-115.458;2023-04-03T05:24:37;4.72;;;1.42;;
59408;SDS011;45213;32.654;-115.458;2023-04-03T05:27:05;8.68;;;2.05;;
59408;SDS011;45213;32.654;-115.458;2023-04-03T05:29:36;4.25;;;1.73;;
59408;SDS011;45213;32.654;-115.458;2023-04-03T05:32:04;6.57;;;1.88;;
59408;SDS011;45213;32.654;-115.458;2023-04-03T05:34:30;8.45;;;1.60;;
59408;SDS011;45213;32.654;-115.458;2023-04-03T05:36:57;5.93;;;1.83;;
59408;SDS011;45213;32.654;-115.458;2023-04-03T05:39:26;3.63;;;1.40;;
59408;SDS011;45213;32.654;-115.458;2023-04-03T05:41:54;5.40;;;1.80;;
59408;SDS011;45213;32.654;-115.458;2023-04-03T05:44:21;9.07;;;1.65;;
59408;SDS011;45213;32.654;-115.458;2023-04-03T05:46:49;6.75;;;2.13;;
59408;SDS011;45213;32.654;-115.458;2023-04-03T05:49:16;10.30;;;1.80;;
59408;SDS011;45213;32.654;-115.458;2023-04-03T05:51:43;7.03;;;1.73;;
59408;SDS011;45213;32.654;-115.458;2023-04-03T05:54:29;5.57;;;1.30;;
59408;SDS011;45213;32.654;-115.458;2023-04-03T05:57:12;5.30;;;1.55;;
59408;SDS011;45213;32.654;-115.458;2023-04-03T05:59:41;6.07;;;1.60;;
59408;SDS011;45213;32.654;-115.458;2023-04-03T06:02:10;9.98;;;2.47;;
59408;SDS011;45213;32.654;-115.458;2023-04-03T06:04:38;5.43;;;2.20;;
59408;SDS011;45213;32.654;-115.458;2023-04-03T06:07:05;6.32;;;1.58;;
59408;SDS011;45213;32.654;-115.458;2023-04-03T06:09:33;9.20;;;1.25;;
59408;SDS011;45213;32.654;-115.458;2023-04-03T06:12:00;5.45;;;1.20;;
59408;SDS011;45213;32.654;-115.458;2023-04-03T06:14:28;4.53;;;1.42;;
59408;SDS011;45213;32.654;-115.458;2023-04-03T06:16:55;9.43;;;1.48;;
59408;SDS011;45213;32.654;-115.458;2023-04-03T06:19:22;7.57;;;1.73;;
59408;SDS011;45213;32.654;-115.458;2023-04-03T06:21:52;3.85;;;1.50;;
59408;SDS011;45213;32.654;-115.458;2023-04-03T06:24:19;5.22;;;1.50;;
59408;SDS011;45213;32.654;-115.458;2023-04-03T06:26:47;6.47;;;1.48;;
59408;SDS011;45213;32.654;-115.458;2023-04-03T06:29:15;5.32;;;1.48;;
59408;SDS011;45213;32.654;-115.458;2023-04-03T06:31:42;6.55;;;1.50;;
59408;SDS011;45213;32.654;-115.458;2023-04-03T06:34:08;5.30;;;1.70;;
59408;SDS011;45213;32.654;-115.458;2023-04-03T06:36:37;10.40;;;1.70;;
59408;SDS011;45213;32.654;-115.458;2023-04-03T06:39:04;6.45;;;1.63;;
59408;SDS011;45213;32.654;-115.458;2023-04-03T06:41:31;8.35;;;2.35;;
59408;SDS011;45213;32.654;-115.458;2023-04-03T06:43:58;6.45;;;1.80;;
59408;SDS011;45213;32.654;-115.458;2023-04-03T06:46:26;7.35;;;1.60;;
59408;SDS011;45213;32.654;-115.458;2023-04-03T06:48:52;8.48;;;1.80;;
59408;SDS011;45213;32.654;-115.458;2023-04-03T06:51:23;8.30;;;2.40;;
59408;SDS011;45213;32.654;-115.458;2023-04-03T06:53:52;13.10;;;2.40;;
59408;SDS011;45213;32.654;-115.458;2023-04-03T06:56:20;13.07;;;2.53;;
59408;SDS011;45213;32.654;-115.458;2023-04-03T06:58:47;7.18;;;2.50;;
59408;SDS011;45213;32.654;-115.458;2023-04-03T07:01:15;11.10;;;2.97;;
59408;SDS011;45213;32.654;-115.458;2023-04-03T07:03:43;11.18;;;3.45;;
59408;SDS011;45213;32.654;-115.458;2023-04-03T07:06:12;11.77;;;3.45;;
59408;SDS011;45213;32.654;-115.458;2023-04-03T07:08:40;4.50;;;2.15;;
59408;SDS011;45213;32.654;-115.458;2023-04-03T07:11:08;10.95;;;2.33;;
59408;SDS011;45213;32.654;-115.458;2023-04-03T07:13:36;4.82;;;1.90;;
59408;SDS011;45213;32.654;-115.458;2023-04-03T07:16:03;6.30;;;1.88;;
59408;SDS011;45213;32.654;-115.458;2023-04-03T07:18:31;8.98;;;1.83;;
59408;SDS011;45213;32.654;-115.458;2023-04-03T07:20:58;5.82;;;1.80;;
59408;SDS011;45213;32.654;-115.458;2023-04-03T07:23:25;4.90;;;1.55;;
59408;SDS011;45213;32.654;-115.458;2023-04-03T07:25:52;3.92;;;1.48;;
59408;SDS011;45213;32.654;-115.458;2023-04-03T07:28:20;6.85;;;1.10;;
59408;SDS011;45213;32.654;-115.458;2023-04-03T07:31:10;4.40;;;1.10;;
59408;SDS011;45213;32.654;-115.458;2023-04-03T07:33:38;5.68;;;1.20;;
59408;SDS011;45213;32.654;-115.458;2023-04-03T07:36:05;3.20;;;1.00;;
59408;SDS011;45213;32.654;-115.458;2023-04-03T07:38:35;4.85;;;1.45;;
59408;SDS011;45213;32.654;-115.458;2023-04-03T07:41:02;8.20;;;2.33;;
59408;SDS011;45213;32.654;-115.458;2023-04-03T07:43:30;8.40;;;2.55;;
59408;SDS011;45213;32.654;-115.458;2023-04-03T07:45:56;7.55;;;2.17;;
59408;SDS011;45213;32.654;-115.458;2023-04-03T07:48:24;6.45;;;1.77;;
59408;SDS011;45213;32.654;-115.458;2023-04-03T07:50:51;4.78;;;2.10;;
59408;SDS011;45213;32.654;-115.458;2023-04-03T07:53:18;7.80;;;2.50;;
59408;SDS011;45213;32.654;-115.458;2023-04-03T07:55:48;7.45;;;2.80;;
59408;SDS011;45213;32.654;-115.458;2023-04-03T07:58:17;9.13;;;2.50;;
59408;SDS011;45213;32.654;-115.458;2023-04-03T08:00:44;7.25;;;1.58;;
59408;SDS011;45213;32.654;-115.458;2023-04-03T08:03:12;8.35;;;1.90;;
59408;SDS011;45213;32.654;-115.458;2023-04-03T08:05:43;6.97;;;1.80;;
59408;SDS011;45213;32.654;-115.458;2023-04-03T08:08:13;8.65;;;1.92;;
59408;SDS011;45213;32.654;-115.458;2023-04-03T08:10:41;5.72;;;1.92;;
59408;SDS011;45213;32.654;-115.458;2023-04-03T08:13:08;7.18;;;1.42;;
59408;SDS011;45213;32.654;-115.458;2023-04-03T08:15:35;5.57;;;1.33;;
59408;SDS011;45213;32.654;-115.458;2023-04-03T08:18:02;5.97;;;1.17;;
59408;SDS011;45213;32.654;-115.458;2023-04-03T08:20:29;3.90;;;1.27;;
59408;SDS011;45213;32.654;-115.458;2023-04-03T08:22:56;7.50;;;1.70;;
59408;SDS011;45213;32.654;-115.458;2023-04-03T08:25:23;8.70;;;1.27;;
59408;SDS011;45213;32.654;-115.458;2023-04-03T08:27:50;4.43;;;1.52;;
59408;SDS011;45213;32.654;-115.458;2023-04-03T08:30:17;6.47;;;1.52;;
59408;SDS011;45213;32.654;-115.458;2023-04-03T08:32:43;4.55;;;1.52;;
59408;SDS011;45213;32.654;-115.458;2023-04-03T08:35:10;6.80;;;1.42;;
59408;SDS011;45213;32.654;-115.458;2023-04-03T08:37:37;6.85;;;1.85;;
59408;SDS011;45213;32.654;-115.458;2023-04-03T08:40:05;7.25;;;1.55;;
59408;SDS011;45213;32.654;-115.458;2023-04-03T08:42:40;7.82;;;1.38;;
59408;SDS011;45213;32.654;-115.458;2023-04-03T08:45:20;6.93;;;1.55;;
59408;SDS011;45213;32.654;-115.458;2023-04-03T08:50:19;3.72;;;1.30;;
59408;SDS011;45213;32.654;-115.458;2023-04-03T08:52:59;7.30;;;1.58;;
59408;SDS011;45213;32.654;-115.458;2023-04-03T08:55:43;8.68;;;1.70;;
59408;SDS011;45213;32.654;-115.458;2023-04-03T09:01:02;8.15;;;1.65;;
59408;SDS011;45213;32.654;-115.458;2023-04-03T09:03:32;11.63;;;1.92;;
59408;SDS011;45213;32.654;-115.458;2023-04-03T09:06:05;5.45;;;1.52;;
59408;SDS011;45213;32.654;-115.458;2023-04-03T09:11:18;7.07;;;1.80;;
59408;SDS011;45213;32.654;-115.458;2023-04-03T09:13:54;5.85;;;2.03;;
59408;SDS011;45213;32.654;-115.458;2023-04-03T09:19:10;6.75;;;1.60;;
59408;SDS011;45213;32.654;-115.458;2023-04-03T09:21:47;7.35;;;1.58;;
59408;SDS011;45213;32.654;-115.458;2023-04-03T09:24:14;8.27;;;1.85;;
59408;SDS011;45213;32.654;-115.458;2023-04-03T09:27:00;5.80;;;1.60;;
59408;SDS011;45213;32.654;-115.458;2023-04-03T09:29:35;6.85;;;1.90;;
59408;SDS011;45213;32.654;-115.458;2023-04-03T09:34:50;11.43;;;2.20;;
59408;SDS011;45213;32.654;-115.458;2023-04-03T09:42:56;9.07;;;3.17;;
59408;SDS011;45213;32.654;-115.458;2023-04-03T09:45:47;9.40;;;3.00;;
59408;SDS011;45213;32.654;-115.458;2023-04-03T10:06:46;7.30;;;3.35;;
59408;SDS011;45213;32.654;-115.458;2023-04-03T10:12:09;13.13;;;3.63;;
59408;SDS011;45213;32.654;-115.458;2023-04-03T10:15:01;10.85;;;4.65;;
59408;SDS011;45213;32.654;-115.458;2023-04-03T10:17:50;6.55;;;3.50;;
59408;SDS011;45213;32.654;-115.458;2023-04-03T10:20:28;9.75;;;2.75;;
59408;SDS011;45213;32.654;-115.458;2023-04-03T10:29:38;9.30;;;4.57;;
59408;SDS011;45213;32.654;-115.458;2023-04-03T10:37:10;10.45;;;2.67;;
59408;SDS011;45213;32.654;-115.458;2023-04-03T10:42:35;7.47;;;2.47;;
59408;SDS011;45213;32.654;-115.458;2023-04-03T10:47:56;9.50;;;2.60;;
59408;SDS011;45213;32.654;-115.458;2023-04-03T10:54:08;6.53;;;3.20;;
59408;SDS011;45213;32.654;-115.458;2023-04-03T10:56:44;6.97;;;3.20;;
59408;SDS011;45213;32.654;-115.458;2023-04-03T11:02:22;9.82;;;3.05;;
59408;SDS011;45213;32.654;-115.458;2023-04-03T11:04:53;8.63;;;3.75;;
59408;SDS011;45213;32.654;-115.458;2023-04-03T11:07:26;12.38;;;3.28;;
59408;SDS011;45213;32.654;-115.458;2023-04-03T11:10:03;7.82;;;3.05;;
59408;SDS011;45213;32.654;-115.458;2023-04-03T11:15:15;9.55;;;3.25;;
59408;SDS011;45213;32.654;-115.458;2023-04-03T11:17:46;10.90;;;3.00;;
59408;SDS011;45213;32.654;-115.458;2023-04-03T11:20:21;12.43;;;3.58;;
59408;SDS011;45213;32.654;-115.458;2023-04-03T11:23:31;10.15;;;3.58;;
59408;SDS011;45213;32.654;-115.458;2023-04-03T11:25:56;7.10;;;2.90;;
59408;SDS011;45213;32.654;-115.458;2023-04-03T11:28:30;8.95;;;2.70;;
59408;SDS011;45213;32.654;-115.458;2023-04-03T11:31:15;10.82;;;3.08;;
59408;SDS011;45213;32.654;-115.458;2023-04-03T11:36:33;6.55;;;2.58;;
59408;SDS011;45213;32.654;-115.458;2023-04-03T11:53:02;6.90;;;2.15;;
59408;SDS011;45213;32.654;-115.458;2023-04-03T12:08:52;8.32;;;2.10;;
59408;SDS011;45213;32.654;-115.458;2023-04-03T12:11:31;10.15;;;2.20;;
59408;SDS011;45213;32.654;-115.458;2023-04-03T12:16:27;12.48;;;2.17;;
59408;SDS011;45213;32.654;-115.458;2023-04-03T12:18:57;13.80;;;2.90;;
59408;SDS011;45213;32.654;-115.458;2023-04-03T12:24:30;16.17;;;3.03;;
59408;SDS011;45213;32.654;-115.458;2023-04-03T12:27:09;11.73;;;3.05;;
59408;SDS011;45213;32.654;-115.458;2023-04-03T12:29:47;14.43;;;3.05;;
59408;SDS011;45213;32.654;-115.458;2023-04-03T12:32:35;11.30;;;2.75;;
59408;SDS011;45213;32.654;-115.458;2023-04-03T12:35:21;8.63;;;3.08;;
59408;SDS011;45213;32.654;-115.458;2023-04-03T12:48:30;23.27;;;4.20;;
59408;SDS011;45213;32.654;-115.458;2023-04-03T12:50:59;8.45;;;3.00;;
59408;SDS011;45213;32.654;-115.458;2023-04-03T12:53:31;11.75;;;2.65;;
59408;SDS011;45213;32.654;-115.458;2023-04-03T12:59:21;6.43;;;3.10;;
59408;SDS011;45213;32.654;-115.458;2023-04-03T13:02:12;4.97;;;2.88;;
59408;SDS011;45213;32.654;-115.458;2023-04-03T13:04:46;8.35;;;2.90;;
59408;SDS011;45213;32.654;-115.458;2023-04-03T13:07:24;5.60;;;2.78;;
59408;SDS011;45213;32.654;-115.458;2023-04-03T13:10:01;8.45;;;2.92;;
59408;SDS011;45213;32.654;-115.458;2023-04-03T13:12:28;5.28;;;3.00;;
59408;SDS011;45213;32.654;-115.458;2023-04-03T13:14:57;6.20;;;2.90;;
59408;SDS011;45213;32.654;-115.458;2023-04-03T13:17:27;5.30;;;3.07;;
59408;SDS011;45213;32.654;-115.458;2023-04-03T13:19:53;7.80;;;3.47;;
59408;SDS011;45213;32.654;-115.458;2023-04-03T13:22:28;8.45;;;3.00;;
59408;SDS011;45213;32.654;-115.458;2023-04-03T13:25:00;8.13;;;3.22;;
59408;SDS011;45213;32.654;-115.458;2023-04-03T13:27:31;10.45;;;2.90;;
59408;SDS011;45213;32.654;-115.458;2023-04-03T13:29:59;7.70;;;3.00;;
59408;SDS011;45213;32.654;-115.458;2023-04-03T13:32:30;6.65;;;2.90;;
59408;SDS011;45213;32.654;-115.458;2023-04-03T13:34:58;9.98;;;2.92;;
59408;SDS011;45213;32.654;-115.458;2023-04-03T13:37:29;8.02;;;3.05;;
59408;SDS011;45213;32.654;-115.458;2023-04-03T13:39:59;7.65;;;3.28;;
59408;SDS011;45213;32.654;-115.458;2023-04-03T13:42:34;7.28;;;3.47;;
59408;SDS011;45213;32.654;-115.458;2023-04-03T13:47:43;7.55;;;3.20;;
59408;SDS011;45213;32.654;-115.458;2023-04-03T13:52:42;7.70;;;3.17;;
59408;SDS011;45213;32.654;-115.458;2023-04-03T13:55:22;12.27;;;4.35;;
59408;SDS011;45213;32.654;-115.458;2023-04-03T13:57:57;6.30;;;3.00;;
59408;SDS011;45213;32.654;-115.458;2023-04-03T14:00:49;10.85;;;3.50;;
59408;SDS011;45213;32.654;-115.458;2023-04-03T14:03:30;7.45;;;2.97;;
59408;SDS011;45213;32.654;-115.458;2023-04-03T14:05:59;10.60;;;2.90;;
59408;SDS011;45213;32.654;-115.458;2023-04-03T14:08:27;5.28;;;3.03;;
59408;SDS011;45213;32.654;-115.458;2023-04-03T14:10:53;13.38;;;3.15;;
59408;SDS011;45213;32.654;-115.458;2023-04-03T14:13:20;5.82;;;3.08;;
59408;SDS011;45213;32.654;-115.458;2023-04-03T14:15:47;10.85;;;3.30;;
59408;SDS011;45213;32.654;-115.458;2023-04-03T14:18:17;7.93;;;2.80;;
59408;SDS011;45213;32.654;-115.458;2023-04-03T14:20:46;10.05;;;3.20;;
59408;SDS011;45213;32.654;-115.458;2023-04-03T14:23:13;10.77;;;2.83;;
59408;SDS011;45213;32.654;-115.458;2023-04-03T14:25:40;5.00;;;2.25;;
59408;SDS011;45213;32.654;-115.458;2023-04-03T14:28:13;6.22;;;2.75;;
59408;SDS011;45213;32.654;-115.458;2023-04-03T14:30:48;9.02;;;2.88;;
59408;SDS011;45213;32.654;-115.458;2023-04-03T14:33:17;7.22;;;2.47;;
59408;SDS011;45213;32.654;-115.458;2023-04-03T14:35:46;11.13;;;3.00;;
59408;SDS011;45213;32.654;-115.458;2023-04-03T14:38:21;7.53;;;2.50;;
59408;SDS011;45213;32.654;-115.458;2023-04-03T14:40:57;12.43;;;2.85;;
59408;SDS011;45213;32.654;-115.458;2023-04-03T14:43:24;8.52;;;2.30;;
59408;SDS011;45213;32.654;-115.458;2023-04-03T14:45:52;8.52;;;2.72;;
59408;SDS011;45213;32.654;-115.458;2023-04-03T14:48:22;9.43;;;2.47;;
59408;SDS011;45213;32.654;-115.458;2023-04-03T14:50:51;12.15;;;2.30;;
59408;SDS011;45213;32.654;-115.458;2023-04-03T14:53:18;6.95;;;2.08;;
59408;SDS011;45213;32.654;-115.458;2023-04-03T14:55:51;7.78;;;2.25;;
59408;SDS011;45213;32.654;-115.458;2023-04-03T14:58:19;9.23;;;2.13;;
59408;SDS011;45213;32.654;-115.458;2023-04-03T15:00:47;7.60;;;2.15;;
59408;SDS011;45213;32.654;-115.458;2023-04-03T15:03:17;13.07;;;2.40;;
59408;SDS011;45213;32.654;-115.458;2023-04-03T15:10:52;7.18;;;1.73;;
59408;SDS011;45213;32.654;-115.458;2023-04-03T15:13:21;8.15;;;1.90;;
59408;SDS011;45213;32.654;-115.458;2023-04-03T15:15:49;10.73;;;4.22;;
59408;SDS011;45213;32.654;-115.458;2023-04-03T15:18:21;7.90;;;2.05;;
59408;SDS011;45213;32.654;-115.458;2023-04-03T15:20:52;9.13;;;2.13;;
59408;SDS011;45213;32.654;-115.458;2023-04-03T15:23:20;6.15;;;1.45;;
59408;SDS011;45213;32.654;-115.458;2023-04-03T15:25:51;7.50;;;1.88;;
59408;SDS011;45213;32.654;-115.458;2023-04-03T15:28:25;9.95;;;1.75;;
59408;SDS011;45213;32.654;-115.458;2023-04-03T15:30:59;6.55;;;1.48;;
59408;SDS011;45213;32.654;-115.458;2023-04-03T15:33:26;7.97;;;1.38;;
59408;SDS011;45213;32.654;-115.458;2023-04-03T15:35:53;6.70;;;1.80;;
59408;SDS011;45213;32.654;-115.458;2023-04-03T15:38:20;4.10;;;1.63;;
59408;SDS011;45213;32.654;-115.458;2023-04-03T15:40:48;6.15;;;1.70;;
59408;SDS011;45213;32.654;-115.458;2023-04-03T15:43:14;7.65;;;2.28;;
59408;SDS011;45213;32.654;-115.458;2023-04-03T15:45:42;9.85;;;1.70;;
59408;SDS011;45213;32.654;-115.458;2023-04-03T15:48:10;13.88;;;2.22;;
59408;SDS011;45213;32.654;-115.458;2023-04-03T15:50:37;9.32;;;1.92;;
59408;SDS011;45213;32.654;-115.458;2023-04-03T15:53:05;3.47;;;1.65;;
59408;SDS011;45213;32.654;-115.458;2023-04-03T15:55:33;12.82;;;2.40;;
59408;SDS011;45213;32.654;-115.458;2023-04-03T15:58:01;3.85;;;1.58;;
59408;SDS011;45213;32.654;-115.458;2023-04-03T16:00:28;9.18;;;1.77;;
59408;SDS011;45213;32.654;-115.458;2023-04-03T16:02:57;12.30;;;2.17;;
59408;SDS011;45213;32.654;-115.458;2023-04-03T16:05:29;18.23;;;2.05;;
59408;SDS011;45213;32.654;-115.458;2023-04-03T16:07:57;7.65;;;1.85;;
59408;SDS011;45213;32.654;-115.458;2023-04-03T16:10:26;7.28;;;1.30;;
59408;SDS011;45213;32.654;-115.458;2023-04-03T16:12:53;9.88;;;1.50;;
59408;SDS011;45213;32.654;-115.458;2023-04-03T16:15:20;8.55;;;1.48;;
59408;SDS011;45213;32.654;-115.458;2023-04-03T16:17:46;11.00;;;1.00;;
59408;SDS011;45213;32.654;-115.458;2023-04-03T16:20:14;10.60;;;1.73;;
59408;SDS011;45213;32.654;-115.458;2023-04-03T16:22:41;9.60;;;1.70;;
59408;SDS011;45213;32.654;-115.458;2023-04-03T16:25:09;9.52;;;1.33;;
59408;SDS011;45213;32.654;-115.458;2023-04-03T16:27:37;12.98;;;1.60;;
59408;SDS011;45213;32.654;-115.458;2023-04-03T16:30:04;10.38;;;1.55;;
59408;SDS011;45213;32.654;-115.458;2023-04-03T16:32:32;18.98;;;2.03;;
59408;SDS011;45213;32.654;-115.458;2023-04-03T16:34:59;12.00;;;1.90;;
59408;SDS011;45213;32.654;-115.458;2023-04-03T16:37:26;20.25;;;2.25;;
59408;SDS011;45213;32.654;-115.458;2023-04-03T16:39:52;13.18;;;1.65;;
59408;SDS011;45213;32.654;-115.458;2023-04-03T16:42:19;14.20;;;1.52;;